sensor_id;sensor_type;location;lat;lon;timestamp;temperature;humidity
19252;DHT22;9760;50.944;5.304;2023-02-01T00:02:00;6.20;99.90
19252;DHT22;9760;50.944;5.304;2023-02-01T00:04:25;6.10;99.90
19252;DHT22;9760;50.944;5.304;2023-02-01T00:06:51;6.10;99.90
19252;DHT22;9760;50.944;5.304;2023-02-01T00:09:17;6.10;99.90
19252;DHT22;9760;50.944;5.304;2023-02-01T00:11:42;6.10;99.90
19252;DHT22;9760;50.944;5.304;2023-02-01T00:14:08;6.10;99.90
19252;DHT22;9760;50.944;5.304;2023-02-01T00:16:34;6.10;99.90
19252;DHT22;9760;50.944;5.304;2023-02-01T00:19:04;6.10;99.90
19252;DHT22;9760;50.944;5.304;2023-02-01T00:21:31;6.10;99.90
19252;DHT22;9760;50.944;5.304;2023-02-01T00:23:57;6.00;99.90
19252;DHT22;9760;50.944;5.304;2023-02-01T00:26:32;5.90;99.90
19252;DHT22;9760;50.944;5.304;2023-02-01T00:28:59;6.00;99.90
19252;DHT22;9760;50.944;5.304;2023-02-01T00:31:25;6.00;99.90
19252;DHT22;9760;50.944;5.304;2023-02-01T00:33:50;6.00;99.90
19252;DHT22;9760;50.944;5.304;2023-02-01T00:36:16;6.00;99.90
19252;DHT22;9760;50.944;5.304;2023-02-01T00:38:42;6.10;99.90
19252;DHT22;9760;50.944;5.304;2023-02-01T00:43:39;6.20;99.90
19252;DHT22;9760;50.944;5.304;2023-02-01T00:46:04;6.30;99.90
19252;DHT22;9760;50.944;5.304;2023-02-01T00:48:30;6.30;99.90
19252;DHT22;9760;50.944;5.304;2023-02-01T00:51:05;6.30;99.90
19252;DHT22;9760;50.944;5.304;2023-02-01T00:53:31;6.30;99.90
19252;DHT22;9760;50.944;5.304;2023-02-01T00:55:57;6.30;99.90
19252;DHT22;9760;50.944;5.304;2023-02-01T00:58:22;6.30;99.90
19252;DHT22;9760;50.944;5.304;2023-02-01T01:03:29;6.40;99.90
19252;DHT22;9760;50.944;5.304;2023-02-01T01:06:00;6.40;99.90
19252;DHT22;9760;50.944;5.304;2023-02-01T01:08:26;6.40;99.90
19252;DHT22;9760;50.944;5.304;2023-02-01T01:10:52;6.40;99.90
19252;DHT22;9760;50.944;5.304;2023-02-01T01:13:18;6.40;99.90
19252;DHT22;9760;50.944;5.304;2023-02-01T01:15:43;6.40;99.90
19252;DHT22;9760;50.944;5.304;2023-02-01T01:18:10;6.50;99.90
19252;DHT22;9760;50.944;5.304;2023-02-01T01:20:38;6.40;99.90
19252;DHT22;9760;50.944;5.304;2023-02-01T01:23:04;6.40;99.90
19252;DHT22;9760;50.944;5.304;2023-02-01T01:25:30;6.40;99.90
19252;DHT22;9760;50.944;5.304;2023-02-01T01:27:56;6.40;99.90
19252;DHT22;9760;50.944;5.304;2023-02-01T01:30:22;6.40;99.90
19252;DHT22;9760;50.944;5.304;2023-02-01T01:32:48;6.40;99.90
19252;DHT22;9760;50.944;5.304;2023-02-01T01:35:14;6.40;99.90
19252;DHT22;9760;50.944;5.304;2023-02-01T01:37:39;6.30;99.90
19252;DHT22;9760;50.944;5.304;2023-02-01T01:40:06;6.30;99.90
19252;DHT22;9760;50.944;5.304;2023-02-01T01:42:43;6.30;99.90
19252;DHT22;9760;50.944;5.304;2023-02-01T01:45:31;6.30;99.90
19252;DHT22;9760;50.944;5.304;2023-02-01T01:47:59;6.30;99.90
19252;DHT22;9760;50.944;5.304;2023-02-01T01:50:50;6.20;99.90
19252;DHT22;9760;50.944;5.304;2023-02-01T01:53:21;6.20;99.90
19252;DHT22;9760;50.944;5.304;2023-02-01T01:55:49;6.20;99.90
19252;DHT22;9760;50.944;5.304;2023-02-01T01:58:19;6.20;99.90
19252;DHT22;9760;50.944;5.304;2023-02-01T02:00:47;6.30;99.90
19252;DHT22;9760;50.944;5.304;2023-02-01T02:03:19;6.30;99.90
19252;DHT22;9760;50.944;5.304;2023-02-01T02:05:49;6.30;99.90
19252;DHT22;9760;50.944;5.304;2023-02-01T02:08:17;6.30;99.90
19252;DHT22;9760;50.944;5.304;2023-02-01T02:10:43;6.30;99.90
19252;DHT22;9760;50.944;5.304;2023-02-01T02:16:22;6.30;99.90
19252;DHT22;9760;50.944;5.304;2023-02-01T02:27:18;6.40;99.90
19252;DHT22;9760;50.944;5.304;2023-02-01T02:32:53;6.50;99.90
19252;DHT22;9760;50.944;5.304;2023-02-01T02:43:35;6.60;99.90
19252;DHT22;9760;50.944;5.304;2023-02-01T02:46:25;6.60;99.90
19252;DHT22;9760;50.944;5.304;2023-02-01T02:53:09;6.50;99.90
19252;DHT22;9760;50.944;5.304;2023-02-01T02:55:57;6.50;99.90
19252;DHT22;9760;50.944;5.304;2023-02-01T02:58:43;6.60;99.90
19252;DHT22;9760;50.944;5.304;2023-02-01T03:01:29;6.60;99.90
19252;DHT22;9760;50.944;5.304;2023-02-01T03:04:14;6.60;99.90
19252;DHT22;9760;50.944;5.304;2023-02-01T03:06:44;6.50;99.90
19252;DHT22;9760;50.944;5.304;2023-02-01T03:09:28;6.50;99.90
19252;DHT22;9760;50.944;5.304;2023-02-01T03:12:00;6.50;99.90
19252;DHT22;9760;50.944;5.304;2023-02-01T03:14:48;6.40;99.90
19252;DHT22;9760;50.944;5.304;2023-02-01T03:17:20;6.30;99.90
19252;DHT22;9760;50.944;5.304;2023-02-01T03:19:48;6.30;99.90
19252;DHT22;9760;50.944;5.304;2023-02-01T03:22:24;6.30;99.90
19252;DHT22;9760;50.944;5.304;2023-02-01T03:24:54;6.20;99.90
19252;DHT22;9760;50.944;5.304;2023-02-01T03:27:35;6.20;99.90
19252;DHT22;9760;50.944;5.304;2023-02-01T03:32:31;6.10;99.90
19252;DHT22;9760;50.944;5.304;2023-02-01T03:35:18;6.10;99.90
19252;DHT22;9760;50.944;5.304;2023-02-01T03:37:46;6.10;99.90
19252;DHT22;9760;50.944;5.304;2023-02-01T03:40:14;6.00;99.90
19252;DHT22;9760;50.944;5.304;2023-02-01T03:42:44;6.00;99.90
19252;DHT22;9760;50.944;5.304;2023-02-01T03:45:26;6.00;99.90
19252;DHT22;9760;50.944;5.304;2023-02-01T03:47:56;6.00;99.90
19252;DHT22;9760;50.944;5.304;2023-02-01T03:50:26;5.90;99.90
19252;DHT22;9760;50.944;5.304;2023-02-01T03:53:07;5.90;99.90
19252;DHT22;9760;50.944;5.304;2023-02-01T03:55:34;5.90;99.90
19252;DHT22;9760;50.944;5.304;2023-02-01T03:58:09;5.90;99.90
19252;DHT22;9760;50.944;5.304;2023-02-01T04:00:36;5.90;99.90
19252;DHT22;9760;50.944;5.304;2023-02-01T04:03:04;5.80;99.90
19252;DHT22;9760;50.944;5.304;2023-02-01T04:05:30;5.80;99.90
19252;DHT22;9760;50.944;5.304;2023-02-01T04:07:56;5.80;99.90
19252;DHT22;9760;50.944;5.304;2023-02-01T04:10:21;5.90;99.90
19252;DHT22;9760;50.944;5.304;2023-02-01T04:12:47;5.90;99.90
19252;DHT22;9760;50.944;5.304;2023-02-01T04:15:12;5.80;99.90
19252;DHT22;9760;50.944;5.304;2023-02-01T04:17:38;5.90;99.90
19252;DHT22;9760;50.944;5.304;2023-02-01T04:20:04;5.80;99.90
19252;DHT22;9760;50.944;5.304;2023-02-01T04:22:30;5.80;99.90
19252;DHT22;9760;50.944;5.304;2023-02-01T04:24:56;5.80;99.90
19252;DHT22;9760;50.944;5.304;2023-02-01T04:27:21;5.80;99.90
19252;DHT22;9760;50.944;5.304;2023-02-01T04:29:47;5.90;99.90
19252;DHT22;9760;50.944;5.304;2023-02-01T04:32:15;5.80;99.90
19252;DHT22;9760;50.944;5.304;2023-02-01T04:34:41;5.80;99.90
19252;DHT22;9760;50.944;5.304;2023-02-01T04:37:07;5.80;99.90
19252;DHT22;9760;50.944;5.304;2023-02-01T04:39:33;5.80;99.90
19252;DHT22;9760;50.944;5.304;2023-02-01T04:41:59;5.80;99.90
19252;DHT22;9760;50.944;5.304;2023-02-01T04:44:24;5.80;99.90
19252;DHT22;9760;50.944;5.304;2023-02-01T04:46:50;5.80;99.90
19252;DHT22;9760;50.944;5.304;2023-02-01T04:49:16;5.80;99.90
19252;DHT22;9760;50.944;5.304;2023-02-01T04:51:42;5.80;99.90
19252;DHT22;9760;50.944;5.304;2023-02-01T04:54:09;5.80;99.90
19252;DHT22;9760;50.944;5.304;2023-02-01T04:56:37;5.80;99.90
19252;DHT22;9760;50.944;5.304;2023-02-01T04:59:03;5.70;99.90
19252;DHT22;9760;50.944;5.304;2023-02-01T05:01:29;5.70;99.90
19252;DHT22;9760;50.944;5.304;2023-02-01T05:03:55;5.70;99.90
19252;DHT22;9760;50.944;5.304;2023-02-01T05:06:21;5.70;99.90
19252;DHT22;9760;50.944;5.304;2023-02-01T05:08:50;5.70;99.90
19252;DHT22;9760;50.944;5.304;2023-02-01T05:11:16;5.80;99.90
19252;DHT22;9760;50.944;5.304;2023-02-01T05:14:00;5.80;99.90
19252;DHT22;9760;50.944;5.304;2023-02-01T05:16:26;5.80;99.90
19252;DHT22;9760;50.944;5.304;2023-02-01T05:18:53;5.80;99.90
19252;DHT22;9760;50.944;5.304;2023-02-01T05:21:19;5.60;99.90
19252;DHT22;9760;50.944;5.304;2023-02-01T05:23:45;5.70;99.90
19252;DHT22;9760;50.944;5.304;2023-02-01T05:26:30;5.70;99.90
19252;DHT22;9760;50.944;5.304;2023-02-01T05:28:55;5.70;99.90
19252;DHT22;9760;50.944;5.304;2023-02-01T05:31:21;5.70;99.90
19252;DHT22;9760;50.944;5.304;2023-02-01T05:33:47;5.70;99.90
19252;DHT22;9760;50.944;5.304;2023-02-01T05:36:13;5.70;99.90
19252;DHT22;9760;50.944;5.304;2023-02-01T05:38:39;5.70;99.90
19252;DHT22;9760;50.944;5.304;2023-02-01T05:41:05;5.70;99.90
19252;DHT22;9760;50.944;5.304;2023-02-01T05:43:30;5.60;99.90
19252;DHT22;9760;50.944;5.304;2023-02-01T05:45:56;5.60;99.90
19252;DHT22;9760;50.944;5.304;2023-02-01T05:48:21;5.60;99.90
19252;DHT22;9760;50.944;5.304;2023-02-01T05:50:47;5.50;99.90
19252;DHT22;9760;50.944;5.304;2023-02-01T05:53:12;5.60;99.90
19252;DHT22;9760;50.944;5.304;2023-02-01T05:55:38;5.40;99.90
19252;DHT22;9760;50.944;5.304;2023-02-01T05:58:05;5.40;99.90
19252;DHT22;9760;50.944;5.304;2023-02-01T06:00:31;5.40;99.90
19252;DHT22;9760;50.944;5.304;2023-02-01T06:02:56;5.40;99.90
19252;DHT22;9760;50.944;5.304;2023-02-01T06:05:23;5.30;99.90
19252;DHT22;9760;50.944;5.304;2023-02-01T06:07:48;5.40;99.90
19252;DHT22;9760;50.944;5.304;2023-02-01T06:10:17;5.40;99.90
19252;DHT22;9760;50.944;5.304;2023-02-01T06:12:44;5.30;99.90
19252;DHT22;9760;50.944;5.304;2023-02-01T06:15:14;5.30;99.90
19252;DHT22;9760;50.944;5.304;2023-02-01T06:17:44;5.30;99.90
19252;DHT22;9760;50.944;5.304;2023-02-01T06:20:12;5.20;99.90
19252;DHT22;9760;50.944;5.304;2023-02-01T06:22:38;5.20;99.90
19252;DHT22;9760;50.944;5.304;2023-02-01T06:25:06;5.20;99.90
19252;DHT22;9760;50.944;5.304;2023-02-01T06:27:33;5.20;99.90
19252;DHT22;9760;50.944;5.304;2023-02-01T06:29:58;5.20;99.90
19252;DHT22;9760;50.944;5.304;2023-02-01T06:32:24;5.20;99.90
19252;DHT22;9760;50.944;5.304;2023-02-01T06:34:50;5.20;99.90
19252;DHT22;9760;50.944;5.304;2023-02-01T06:37:18;5.10;99.90
19252;DHT22;9760;50.944;5.304;2023-02-01T06:39:44;5.10;99.90
19252;DHT22;9760;50.944;5.304;2023-02-01T06:42:10;5.10;99.90
19252;DHT22;9760;50.944;5.304;2023-02-01T06:44:35;5.10;99.90
19252;DHT22;9760;50.944;5.304;2023-02-01T06:47:03;5.00;99.90
19252;DHT22;9760;50.944;5.304;2023-02-01T06:49:29;5.00;99.90
19252;DHT22;9760;50.944;5.304;2023-02-01T06:51:55;5.00;99.90
19252;DHT22;9760;50.944;5.304;2023-02-01T06:54:20;5.00;99.90
19252;DHT22;9760;50.944;5.304;2023-02-01T06:56:46;5.00;99.90
19252;DHT22;9760;50.944;5.304;2023-02-01T06:59:12;5.00;99.90
19252;DHT22;9760;50.944;5.304;2023-02-01T07:01:38;5.00;99.90
19252;DHT22;9760;50.944;5.304;2023-02-01T07:04:04;5.00;99.90
19252;DHT22;9760;50.944;5.304;2023-02-01T07:06:30;5.00;99.90
19252;DHT22;9760;50.944;5.304;2023-02-01T07:08:57;5.00;99.90
19252;DHT22;9760;50.944;5.304;2023-02-01T07:11:22;5.00;99.90
19252;DHT22;9760;50.944;5.304;2023-02-01T07:13:54;5.00;99.90
19252;DHT22;9760;50.944;5.304;2023-02-01T07:16:20;5.00;99.90
19252;DHT22;9760;50.944;5.304;2023-02-01T07:18:46;5.00;99.90
19252;DHT22;9760;50.944;5.304;2023-02-01T07:21:12;5.00;99.90
19252;DHT22;9760;50.944;5.304;2023-02-01T07:23:38;5.00;99.90
19252;DHT22;9760;50.944;5.304;2023-02-01T07:26:06;5.00;99.90
19252;DHT22;9760;50.944;5.304;2023-02-01T07:28:33;4.90;99.90
19252;DHT22;9760;50.944;5.304;2023-02-01T07:31:19;4.90;99.90
19252;DHT22;9760;50.944;5.304;2023-02-01T07:33:50;4.90;99.90
19252;DHT22;9760;50.944;5.304;2023-02-01T07:36:20;4.90;99.90
19252;DHT22;9760;50.944;5.304;2023-02-01T07:38:46;4.90;99.90
19252;DHT22;9760;50.944;5.304;2023-02-01T07:41:16;4.90;99.90
19252;DHT22;9760;50.944;5.304;2023-02-01T07:43:42;4.90;99.90
19252;DHT22;9760;50.944;5.304;2023-02-01T07:46:10;4.90;99.90
19252;DHT22;9760;50.944;5.304;2023-02-01T07:48:36;5.00;99.90
19252;DHT22;9760;50.944;5.304;2023-02-01T07:51:10;4.90;99.90
19252;DHT22;9760;50.944;5.304;2023-02-01T07:53:37;4.90;99.90
19252;DHT22;9760;50.944;5.304;2023-02-01T07:56:16;5.00;99.90
19252;DHT22;9760;50.944;5.304;2023-02-01T07:58:42;5.00;99.90
19252;DHT22;9760;50.944;5.304;2023-02-01T08:01:16;4.90;99.90
19252;DHT22;9760;50.944;5.304;2023-02-01T08:03:46;4.90;99.90
19252;DHT22;9760;50.944;5.304;2023-02-01T08:06:12;4.90;99.90
19252;DHT22;9760;50.944;5.304;2023-02-01T08:08:38;4.90;99.90
19252;DHT22;9760;50.944;5.304;2023-02-01T08:11:06;4.90;99.90
19252;DHT22;9760;50.944;5.304;2023-02-01T08:13:33;4.90;99.90
19252;DHT22;9760;50.944;5.304;2023-02-01T08:16:03;4.90;99.90
19252;DHT22;9760;50.944;5.304;2023-02-01T08:18:29;4.90;99.90
19252;DHT22;9760;50.944;5.304;2023-02-01T08:20:55;5.00;99.90
19252;DHT22;9760;50.944;5.304;2023-02-01T08:23:21;5.00;99.90
19252;DHT22;9760;50.944;5.304;2023-02-01T08:25:47;5.10;99.90
19252;DHT22;9760;50.944;5.304;2023-02-01T08:28:13;5.10;99.90
19252;DHT22;9760;50.944;5.304;2023-02-01T08:30:39;5.30;99.90
19252;DHT22;9760;50.944;5.304;2023-02-01T08:33:07;5.40;99.90
19252;DHT22;9760;50.944;5.304;2023-02-01T08:35:38;5.50;99.90
19252;DHT22;9760;50.944;5.304;2023-02-01T08:38:04;5.50;99.90
19252;DHT22;9760;50.944;5.304;2023-02-01T08:40:30;5.60;99.90
19252;DHT22;9760;50.944;5.304;2023-02-01T08:42:56;5.70;99.90
19252;DHT22;9760;50.944;5.304;2023-02-01T08:45:25;5.60;99.90
19252;DHT22;9760;50.944;5.304;2023-02-01T08:47:54;5.70;99.90
19252;DHT22;9760;50.944;5.304;2023-02-01T08:50:21;5.70;99.90
19252;DHT22;9760;50.944;5.304;2023-02-01T08:52:47;5.80;99.90
19252;DHT22;9760;50.944;5.304;2023-02-01T08:55:13;5.80;99.90
19252;DHT22;9760;50.944;5.304;2023-02-01T08:57:39;5.80;99.90
19252;DHT22;9760;50.944;5.304;2023-02-01T09:00:08;5.80;99.90
19252;DHT22;9760;50.944;5.304;2023-02-01T09:02:35;5.80;99.90
19252;DHT22;9760;50.944;5.304;2023-02-01T09:05:01;5.80;99.90
19252;DHT22;9760;50.944;5.304;2023-02-01T09:07:26;5.90;99.90
19252;DHT22;9760;50.944;5.304;2023-02-01T09:09:52;5.90;99.90
19252;DHT22;9760;50.944;5.304;2023-02-01T09:12:20;5.90;99.90
19252;DHT22;9760;50.944;5.304;2023-02-01T09:14:46;6.00;99.90
19252;DHT22;9760;50.944;5.304;2023-02-01T09:17:11;6.00;99.90
19252;DHT22;9760;50.944;5.304;2023-02-01T09:19:39;6.00;99.90
19252;DHT22;9760;50.944;5.304;2023-02-01T09:22:04;6.10;99.90
19252;DHT22;9760;50.944;5.304;2023-02-01T09:24:30;6.10;99.90
19252;DHT22;9760;50.944;5.304;2023-02-01T09:26:56;6.20;99.90
19252;DHT22;9760;50.944;5.304;2023-02-01T09:29:21;6.20;99.90
19252;DHT22;9760;50.944;5.304;2023-02-01T09:31:47;6.10;99.90
19252;DHT22;9760;50.944;5.304;2023-02-01T09:34:13;6.20;99.90
19252;DHT22;9760;50.944;5.304;2023-02-01T09:36:38;6.20;99.90
19252;DHT22;9760;50.944;5.304;2023-02-01T09:39:04;6.20;99.90
19252;DHT22;9760;50.944;5.304;2023-02-01T09:45:06;6.30;99.90
19252;DHT22;9760;50.944;5.304;2023-02-01T09:47:35;6.30;99.90
19252;DHT22;9760;50.944;5.304;2023-02-01T09:50:14;6.30;99.90
19252;DHT22;9760;50.944;5.304;2023-02-01T09:52:48;6.40;99.90
19252;DHT22;9760;50.944;5.304;2023-02-01T10:00:54;6.60;99.90
19252;DHT22;9760;50.944;5.304;2023-02-01T10:03:23;6.70;99.90
19252;DHT22;9760;50.944;5.304;2023-02-01T10:09:37;6.90;99.90
19252;DHT22;9760;50.944;5.304;2023-02-01T10:12:36;7.00;99.90
19252;DHT22;9760;50.944;5.304;2023-02-01T10:18:28;7.30;99.90
19252;DHT22;9760;50.944;5.304;2023-02-01T10:21:36;7.40;99.90
19252;DHT22;9760;50.944;5.304;2023-02-01T10:25:09;7.60;99.90
19252;DHT22;9760;50.944;5.304;2023-02-01T10:29:49;7.90;99.90
19252;DHT22;9760;50.944;5.304;2023-02-01T10:32:21;8.00;99.90
19252;DHT22;9760;50.944;5.304;2023-02-01T10:34:55;8.00;99.90
19252;DHT22;9760;50.944;5.304;2023-02-01T10:37:32;8.00;99.90
19252;DHT22;9760;50.944;5.304;2023-02-01T10:42:36;8.10;99.90
19252;DHT22;9760;50.944;5.304;2023-02-01T10:45:02;8.20;99.90
19252;DHT22;9760;50.944;5.304;2023-02-01T10:47:28;8.30;99.90
19252;DHT22;9760;50.944;5.304;2023-02-01T10:50:06;8.50;99.90
19252;DHT22;9760;50.944;5.304;2023-02-01T10:52:51;8.70;99.90
19252;DHT22;9760;50.944;5.304;2023-02-01T10:55:37;9.00;99.90
19252;DHT22;9760;50.944;5.304;2023-02-01T10:58:05;9.30;99.90
19252;DHT22;9760;50.944;5.304;2023-02-01T11:08:57;9.00;99.90
19252;DHT22;9760;50.944;5.304;2023-02-01T11:11:24;8.80;99.90
19252;DHT22;9760;50.944;5.304;2023-02-01T11:14:14;8.70;99.90
19252;DHT22;9760;50.944;5.304;2023-02-01T11:16:40;8.70;99.90
19252;DHT22;9760;50.944;5.304;2023-02-01T11:19:06;8.70;99.90
19252;DHT22;9760;50.944;5.304;2023-02-01T11:21:33;8.60;99.90
19252;DHT22;9760;50.944;5.304;2023-02-01T11:24:22;8.70;99.90
19252;DHT22;9760;50.944;5.304;2023-02-01T11:26:48;8.70;99.90
19252;DHT22;9760;50.944;5.304;2023-02-01T11:29:17;8.80;99.90
19252;DHT22;9760;50.944;5.304;2023-02-01T11:31:45;8.90;99.90
19252;DHT22;9760;50.944;5.304;2023-02-01T11:34:20;9.00;99.90
19252;DHT22;9760;50.944;5.304;2023-02-01T11:36:48;9.00;99.90
19252;DHT22;9760;50.944;5.304;2023-02-01T11:39:18;8.90;99.90
19252;DHT22;9760;50.944;5.304;2023-02-01T11:42:15;8.90;99.90
19252;DHT22;9760;50.944;5.304;2023-02-01T11:44:43;8.90;99.90
19252;DHT22;9760;50.944;5.304;2023-02-01T11:47:31;8.80;99.90
19252;DHT22;9760;50.944;5.304;2023-02-01T11:50:12;8.80;99.90
19252;DHT22;9760;50.944;5.304;2023-02-01T11:58:22;9.00;99.90
19252;DHT22;9760;50.944;5.304;2023-02-01T12:04:10;9.00;99.90
19252;DHT22;9760;50.944;5.304;2023-02-01T12:06:52;9.00;99.90
19252;DHT22;9760;50.944;5.304;2023-02-01T12:09:40;8.90;99.90
19252;DHT22;9760;50.944;5.304;2023-02-01T12:12:56;8.80;99.90
19252;DHT22;9760;50.944;5.304;2023-02-01T12:18:16;8.80;99.90
19252;DHT22;9760;50.944;5.304;2023-02-01T12:34:39;8.90;99.90
19252;DHT22;9760;50.944;5.304;2023-02-01T12:40:02;8.80;99.90
19252;DHT22;9760;50.944;5.304;2023-02-01T12:43:01;8.80;99.90
19252;DHT22;9760;50.944;5.304;2023-02-01T12:45:44;8.80;99.90
19252;DHT22;9760;50.944;5.304;2023-02-01T12:50:57;8.70;99.90
19252;DHT22;9760;50.944;5.304;2023-02-01T12:53:37;8.70;99.90
19252;DHT22;9760;50.944;5.304;2023-02-01T12:56:09;8.70;99.90
19252;DHT22;9760;50.944;5.304;2023-02-01T12:58:51;8.70;99.90
19252;DHT22;9760;50.944;5.304;2023-02-01T13:01:34;8.80;99.90
19252;DHT22;9760;50.944;5.304;2023-02-01T13:07:18;8.80;99.90
19252;DHT22;9760;50.944;5.304;2023-02-01T13:09:53;8.70;99.90
19252;DHT22;9760;50.944;5.304;2023-02-01T13:15:01;8.70;99.90
19252;DHT22;9760;50.944;5.304;2023-02-01T13:17:31;8.70;99.90
19252;DHT22;9760;50.944;5.304;2023-02-01T13:22:36;8.70;99.90
19252;DHT22;9760;50.944;5.304;2023-02-01T13:27:35;8.80;99.90
19252;DHT22;9760;50.944;5.304;2023-02-01T13:30:23;8.80;99.90
19252;DHT22;9760;50.944;5.304;2023-02-01T13:41:25;8.80;99.90
19252;DHT22;9760;50.944;5.304;2023-02-01T13:43:57;8.90;99.90
19252;DHT22;9760;50.944;5.304;2023-02-01T13:46:24;8.90;99.90
19252;DHT22;9760;50.944;5.304;2023-02-01T13:48:56;8.90;99.90
19252;DHT22;9760;50.944;5.304;2023-02-01T13:51:37;8.90;99.90
19252;DHT22;9760;50.944;5.304;2023-02-01T13:54:04;8.90;99.90
19252;DHT22;9760;50.944;5.304;2023-02-01T13:56:42;8.90;99.90
19252;DHT22;9760;50.944;5.304;2023-02-01T14:13:32;9.00;99.90
19252;DHT22;9760;50.944;5.304;2023-02-01T14:21:32;9.00;99.90
19252;DHT22;9760;50.944;5.304;2023-02-01T14:24:18;9.00;99.90
19252;DHT22;9760;50.944;5.304;2023-02-01T14:26:51;9.00;99.90
19252;DHT22;9760;50.944;5.304;2023-02-01T14:29:33;9.00;99.90
19252;DHT22;9760;50.944;5.304;2023-02-01T14:32:03;9.00;99.90
19252;DHT22;9760;50.944;5.304;2023-02-01T14:34:48;9.00;99.90
19252;DHT22;9760;50.944;5.304;2023-02-01T14:58:18;9.10;99.90
19252;DHT22;9760;50.944;5.304;2023-02-01T15:01:15;9.00;99.90
19252;DHT22;9760;50.944;5.304;2023-02-01T15:04:11;9.00;99.90
19252;DHT22;9760;50.944;5.304;2023-02-01T15:07:07;9.00;99.90
19252;DHT22;9760;50.944;5.304;2023-02-01T15:09:38;9.00;99.90
19252;DHT22;9760;50.944;5.304;2023-02-01T15:14:45;9.00;99.90
19252;DHT22;9760;50.944;5.304;2023-02-01T15:17:28;9.00;99.90
19252;DHT22;9760;50.944;5.304;2023-02-01T15:20:23;9.00;99.90
19252;DHT22;9760;50.944;5.304;2023-02-01T15:25:23;9.00;99.90
19252;DHT22;9760;50.944;5.304;2023-02-01T15:27:49;8.90;99.90
19252;DHT22;9760;50.944;5.304;2023-02-01T15:30:23;8.90;99.90
19252;DHT22;9760;50.944;5.304;2023-02-01T15:32:50;8.90;99.90
19252;DHT22;9760;50.944;5.304;2023-02-01T15:35:41;8.90;99.90
19252;DHT22;9760;50.944;5.304;2023-02-01T15:40:59;8.90;99.90
19252;DHT22;9760;50.944;5.304;2023-02-01T15:43:27;8.90;99.90
19252;DHT22;9760;50.944;5.304;2023-02-01T15:45:57;8.80;99.90
19252;DHT22;9760;50.944;5.304;2023-02-01T15:48:26;8.90;99.90
19252;DHT22;9760;50.944;5.304;2023-02-01T15:50:53;8.90;99.90
19252;DHT22;9760;50.944;5.304;2023-02-01T15:53:23;8.80;99.90
19252;DHT22;9760;50.944;5.304;2023-02-01T15:55:55;8.80;99.90
19252;DHT22;9760;50.944;5.304;2023-02-01T15:58:22;8.80;99.90
19252;DHT22;9760;50.944;5.304;2023-02-01T16:00:50;8.70;99.90
19252;DHT22;9760;50.944;5.304;2023-02-01T16:03:40;8.70;99.90
19252;DHT22;9760;50.944;5.304;2023-02-01T16:06:25;8.60;99.90
19252;DHT22;9760;50.944;5.304;2023-02-01T16:11:39;8.50;99.90
19252;DHT22;9760;50.944;5.304;2023-02-01T16:14:06;8.40;99.90
19252;DHT22;9760;50.944;5.304;2023-02-01T16:16:32;8.40;99.90
19252;DHT22;9760;50.944;5.304;2023-02-01T16:18:57;8.40;99.90
19252;DHT22;9760;50.944;5.304;2023-02-01T16:21:23;8.40;99.90
19252;DHT22;9760;50.944;5.304;2023-02-01T16:23:50;8.50;99.90
19252;DHT22;9760;50.944;5.304;2023-02-01T16:26:17;8.50;99.90
19252;DHT22;9760;50.944;5.304;2023-02-01T16:28:43;8.50;99.90
19252;DHT22;9760;50.944;5.304;2023-02-01T16:31:16;8.50;99.90
19252;DHT22;9760;50.944;5.304;2023-02-01T16:33:48;8.50;99.90
19252;DHT22;9760;50.944;5.304;2023-02-01T16:36:14;8.50;99.90
19252;DHT22;9760;50.944;5.304;2023-02-01T16:38:40;8.60;99.90
19252;DHT22;9760;50.944;5.304;2023-02-01T16:41:06;8.60;99.90
19252;DHT22;9760;50.944;5.304;2023-02-01T16:43:31;8.60;99.90
19252;DHT22;9760;50.944;5.304;2023-02-01T16:46:00;8.60;99.90
19252;DHT22;9760;50.944;5.304;2023-02-01T16:51:00;8.60;99.90
19252;DHT22;9760;50.944;5.304;2023-02-01T16:53:28;8.50;99.90
19252;DHT22;9760;50.944;5.304;2023-02-01T16:55:54;8.50;99.90
19252;DHT22;9760;50.944;5.304;2023-02-01T16:58:26;8.40;99.90
19252;DHT22;9760;50.944;5.304;2023-02-01T17:00:53;8.40;99.90
19252;DHT22;9760;50.944;5.304;2023-02-01T17:03:20;8.40;99.90
19252;DHT22;9760;50.944;5.304;2023-02-01T17:05:56;8.40;99.90
19252;DHT22;9760;50.944;5.304;2023-02-01T17:08:30;8.40;99.90
19252;DHT22;9760;50.944;5.304;2023-02-01T17:10:56;8.40;99.90
19252;DHT22;9760;50.944;5.304;2023-02-01T17:13:22;8.50;99.90
19252;DHT22;9760;50.944;5.304;2023-02-01T17:15:54;8.40;99.90
19252;DHT22;9760;50.944;5.304;2023-02-01T17:18:20;8.40;99.90
19252;DHT22;9760;50.944;5.304;2023-02-01T17:20:46;8.40;99.90
19252;DHT22;9760;50.944;5.304;2023-02-01T17:23:14;8.40;99.90
19252;DHT22;9760;50.944;5.304;2023-02-01T17:25:40;8.40;99.90
19252;DHT22;9760;50.944;5.304;2023-02-01T17:28:06;8.40;99.90
19252;DHT22;9760;50.944;5.304;2023-02-01T17:30:32;8.40;99.90
19252;DHT22;9760;50.944;5.304;2023-02-01T17:32:58;8.40;99.90
19252;DHT22;9760;50.944;5.304;2023-02-01T17:35:25;8.30;99.90
19252;DHT22;9760;50.944;5.304;2023-02-01T17:37:52;8.30;99.90
19252;DHT22;9760;50.944;5.304;2023-02-01T17:40:18;8.30;99.90
19252;DHT22;9760;50.944;5.304;2023-02-01T17:42:44;8.20;99.90
19252;DHT22;9760;50.944;5.304;2023-02-01T17:47:45;8.20;99.90
19252;DHT22;9760;50.944;5.304;2023-02-01T17:50:12;8.10;99.90
19252;DHT22;9760;50.944;5.304;2023-02-01T17:52:38;8.10;99.90
19252;DHT22;9760;50.944;5.304;2023-02-01T17:55:17;8.10;99.90
19252;DHT22;9760;50.944;5.304;2023-02-01T17:57:43;8.10;99.90
19252;DHT22;9760;50.944;5.304;2023-02-01T18:00:09;8.10;99.90
19252;DHT22;9760;50.944;5.304;2023-02-01T18:02:38;8.10;99.90
19252;DHT22;9760;50.944;5.304;2023-02-01T18:05:23;8.20;99.90
19252;DHT22;9760;50.944;5.304;2023-02-01T18:07:50;8.20;99.90
19252;DHT22;9760;50.944;5.304;2023-02-01T18:10:16;8.10;99.90
19252;DHT22;9760;50.944;5.304;2023-02-01T18:12:42;8.20;99.90
19252;DHT22;9760;50.944;5.304;2023-02-01T18:15:19;8.20;99.90
19252;DHT22;9760;50.944;5.304;2023-02-01T18:17:46;8.10;99.90
19252;DHT22;9760;50.944;5.304;2023-02-01T18:20:17;8.20;99.90
19252;DHT22;9760;50.944;5.304;2023-02-01T18:22:44;8.20;99.90
19252;DHT22;9760;50.944;5.304;2023-02-01T18:25:17;8.20;99.90
19252;DHT22;9760;50.944;5.304;2023-02-01T18:27:43;8.20;99.90
19252;DHT22;9760;50.944;5.304;2023-02-01T18:30:10;8.20;99.90
19252;DHT22;9760;50.944;5.304;2023-02-01T18:32:35;8.20;99.90
19252;DHT22;9760;50.944;5.304;2023-02-01T18:35:01;8.20;99.90
19252;DHT22;9760;50.944;5.304;2023-02-01T18:37:27;8.30;99.90
19252;DHT22;9760;50.944;5.304;2023-02-01T18:39:52;8.30;99.90
19252;DHT22;9760;50.944;5.304;2023-02-01T18:42:18;8.30;99.90
19252;DHT22;9760;50.944;5.304;2023-02-01T18:44:43;8.30;99.90
19252;DHT22;9760;50.944;5.304;2023-02-01T18:47:09;8.40;99.90
19252;DHT22;9760;50.944;5.304;2023-02-01T18:49:35;8.30;99.90
19252;DHT22;9760;50.944;5.304;2023-02-01T18:52:00;8.30;99.90
19252;DHT22;9760;50.944;5.304;2023-02-01T18:54:26;8.30;99.90
19252;DHT22;9760;50.944;5.304;2023-02-01T18:56:52;8.40;99.90
19252;DHT22;9760;50.944;5.304;2023-02-01T18:59:18;8.40;99.90
19252;DHT22;9760;50.944;5.304;2023-02-01T19:01:44;8.40;99.90
19252;DHT22;9760;50.944;5.304;2023-02-01T19:04:09;8.30;99.90
19252;DHT22;9760;50.944;5.304;2023-02-01T19:06:36;8.30;99.90
19252;DHT22;9760;50.944;5.304;2023-02-01T19:09:01;8.30;99.90
19252;DHT22;9760;50.944;5.304;2023-02-01T19:11:27;8.30;99.90
19252;DHT22;9760;50.944;5.304;2023-02-01T19:13:53;8.30;99.90